Time;durP1;ratioP1;P1;durP2;ratioP2;P2;SDS_P1;SDS_P2;PMS_P1;PMS_P2;Temp;Humidity;BMP_temperature;BMP_pressure;BME280_temperature;BME280_humidity;BME280_pressure;Samples;Min_cycle;Max_cycle;Signal;HPM_P1;HPM_P2
2021/12/18 00:01:06;;;;;;;28.67;25.60;;;;;;;0.94;74.82;102569.06;4972204;28;20101;-83
2021/12/18 00:03:33;;;;;;;31.80;25.87;;;;;;;1.73;74.62;102666.22;4970764;28;20055;-84
2021/12/18 00:06:01;;;;;;;29.70;26.63;;;;;;;1.35;74.49;102606.72;4971779;28;20162;-83
2021/12/18 00:08:28;;;;;;;31.73;26.50;;;;;;;0.92;74.08;102555.16;4971036;28;20047;-83
2021/12/18 00:10:55;;;;;;;31.73;26.60;;;;;;;0.57;74.41;102520.00;4970860;28;20078;-85
2021/12/18 00:13:23;;;;;;;30.50;26.97;;;;;;;0.20;75.59;102495.34;4971205;28;20358;-83
2021/12/18 00:15:52;;;;;;;42.97;25.47;;;;;;;1.41;75.45;102680.75;4971644;28;20047;-82
2021/12/18 00:18:19;;;;;;;32.23;25.50;;;;;;;-0.12;74.33;102408.78;4973198;28;20050;-83
2021/12/18 00:20:46;;;;;;;69.93;27.87;;;;;;;-0.84;74.98;102331.56;4977552;28;20078;-85
2021/12/18 00:23:13;;;;;;;65.50;27.10;;;;;;;0.53;75.28;102545.31;4978424;28;20071;-83
2021/12/18 00:25:40;;;;;;;38.23;25.90;;;;;;;0.16;75.40;102521.50;4988912;28;20487;-84
2021/12/18 00:28:07;;;;;;;28.97;25.83;;;;;;;-0.16;76.33;102485.44;4986345;28;20498;-84
2021/12/18 00:30:34;;;;;;;35.03;27.17;;;;;;;0.82;76.22;102630.28;5001802;28;20042;-87
2021/12/18 00:33:03;;;;;;;51.33;26.03;;;;;;;-0.03;75.78;102463.47;4991957;28;20078;-86
2021/12/18 00:35:33;;;;;;;28.47;25.40;;;;;;;-0.22;75.86;102462.88;5003445;28;20058;-82
2021/12/18 00:38:04;;;;;;;29.23;24.50;;;;;;;-0.24;76.04;102473.34;4993416;28;20643;-82
2021/12/18 00:40:44;;;;;;;35.05;26.50;;;;;;;0.33;77.07;102584.81;4990263;28;20073;-82
2021/12/18 00:43:26;;;;;;;34.13;26.73;;;;;;;-0.12;76.51;102472.31;4973040;28;20057;-82
2021/12/18 00:45:53;;;;;;;41.13;28.10;;;;;;;-0.37;77.00;102439.59;4972756;28;20074;-83
2021/12/18 00:48:21;;;;;;;28.07;24.57;;;;;;;-0.30;76.89;102417.75;4972914;28;20058;-81
2021/12/18 00:50:48;;;;;;;41.87;26.60;;;;;;;0.79;77.17;102632.94;4972550;28;20050;-81
2021/12/18 00:53:15;;;;;;;31.53;26.07;;;;;;;-0.72;77.68;102362.69;4989608;28;20054;-85
2021/12/18 00:55:42;;;;;;;29.63;25.27;;;;;;;-0.12;77.91;102456.66;4972510;28;20081;-82
2021/12/18 00:58:10;;;;;;;30.87;25.43;;;;;;;-0.76;77.78;102346.22;4972637;28;20466;-84
2021/12/18 01:00:38;;;;;;;29.97;26.20;;;;;;;0.78;78.54;102616.41;4972280;28;20081;-84
2021/12/18 01:03:07;;;;;;;32.53;26.90;;;;;;;0.06;78.26;102479.00;4972100;28;20058;-83
2021/12/18 01:05:34;;;;;;;31.40;26.10;;;;;;;-0.27;77.65;102423.81;4971968;28;20057;-84
2021/12/18 01:08:00;;;;;;;29.37;25.27;;;;;;;0.12;78.38;102492.00;4972288;28;20682;-83
2021/12/18 01:10:47;;;;;;;29.53;25.23;;;;;;;-0.89;77.59;102314.22;4972350;28;20054;-85
2021/12/18 01:13:19;;;;;;;32.37;25.60;;;;;;;0.69;78.28;102586.91;4971814;28;20454;-83
2021/12/18 01:15:50;;;;;;;29.30;25.20;;;;;;;-1.02;78.19;102301.38;4972008;28;20086;-84
2021/12/18 01:23:50;;;;;;;29.47;24.40;;;;;;;-0.41;78.83;102380.50;4989728;28;20057;-83
2021/12/18 01:26:17;;;;;;;30.67;25.70;;;;;;;0.81;78.41;102578.88;4968517;28;20042;-83
2021/12/18 01:28:44;;;;;;;33.23;27.93;;;;;;;0.65;78.52;102549.50;4968392;28;20058;-83
2021/12/18 01:31:11;;;;;;;32.13;25.63;;;;;;;0.76;77.74;102559.78;4969841;28;20054;-83
2021/12/18 01:33:37;;;;;;;30.13;26.37;;;;;;;0.97;77.94;102605.63;4968332;28;20158;-86
2021/12/18 01:36:04;;;;;;;28.20;24.87;;;;;;;0.30;77.20;102472.53;4970011;28;20475;-85
2021/12/18 01:38:31;;;;;;;27.37;24.07;;;;;;;1.24;77.06;102630.47;4968877;28;20109;-84
2021/12/18 01:40:59;;;;;;;29.73;24.53;;;;;;;1.29;76.02;102644.34;4968725;28;20078;-82
2021/12/18 01:46:38;;;;;;;30.60;25.20;;;;;;;-0.74;75.42;102331.41;4969662;28;20100;-82
2021/12/18 01:52:03;;;;;;;27.67;23.60;;;;;;;0.92;75.39;102673.69;4969457;28;20494;-83
2021/12/18 01:54:31;;;;;;;34.03;25.80;;;;;;;0.71;75.54;102656.59;4968392;28;20054;-83
2021/12/18 01:56:59;;;;;;;35.47;24.50;;;;;;;-0.76;76.27;102392.28;4969392;28;20118;-83
2021/12/18 01:59:45;;;;;;;29.90;23.83;;;;;;;-0.66;75.92;102440.84;4968037;28;20106;-86
2021/12/18 02:02:12;;;;;;;32.07;24.27;;;;;;;0.38;76.50;102650.09;4967964;28;20113;-83
2021/12/18 02:04:40;;;;;;;33.60;23.47;;;;;;;0.50;77.11;102680.41;4969558;28;20066;-83
2021/12/18 02:07:09;;;;;;;27.40;22.53;;;;;;;0.57;76.97;102703.84;4968898;28;20126;-83
2021/12/18 02:12:29;;;;;;;28.60;24.57;;;;;;;-0.55;76.23;102543.34;4969417;28;20055;-84
2021/12/18 02:20:38;;;;;;;27.50;21.83;;;;;;;0.43;76.92;102724.91;4970014;28;20109;-83
2021/12/18 02:23:05;;;;;;;24.50;20.00;;;;;;;0.09;77.49;102687.88;4969915;28;20078;-83
2021/12/18 02:25:35;;;;;;;26.80;21.37;;;;;;;0.26;77.28;102731.25;4974629;28;20050;-82
2021/12/18 02:28:14;;;;;;;28.13;20.63;;;;;;;0.19;77.30;102709.53;4980466;28;20064;-84
2021/12/18 02:30:42;;;;;;;29.37;23.20;;;;;;;0.13;78.06;102710.50;4980259;28;20089;-85
2021/12/18 02:33:11;;;;;;;26.10;22.03;;;;;;;0.03;78.16;102690.59;4982564;28;20053;-83
2021/12/18 02:35:54;;;;;;;26.67;21.40;;;;;;;0.18;77.97;102710.44;4980202;28;20177;-83
2021/12/18 02:44:18;;;;;;;24.53;21.83;;;;;;;-0.30;78.85;102647.44;4933208;29;20110;-83
2021/12/18 02:46:44;;;;;;;24.23;20.67;;;;;;;-0.01;78.96;102707.16;4943052;29;20257;-85
2021/12/18 02:49:16;;;;;;;24.70;21.67;;;;;;;-0.14;79.23;102690.78;4979475;28;20050;-86
2021/12/18 02:51:43;;;;;;;25.80;22.40;;;;;;;-0.29;79.06;102667.44;4983177;28;20494;-85
2021/12/18 02:54:10;;;;;;;26.27;21.40;;;;;;;-0.21;79.00;102657.78;4988763;28;20074;-82
2021/12/18 02:56:36;;;;;;;26.77;22.20;;;;;;;-0.66;78.90;102553.00;4970726;28;20145;-82
2021/12/18 02:59:07;;;;;;;26.80;23.33;;;;;;;-0.33;78.47;102631.81;4970783;28;20489;-82
2021/12/18 03:01:38;;;;;;;23.90;20.90;;;;;;;-0.39;78.39;102617.06;4970514;28;20480;-84
2021/12/18 03:04:20;;;;;;;26.00;22.63;;;;;;;-1.30;78.14;102452.88;4971134;28;20133;-83
2021/12/18 03:06:52;;;;;;;26.58;23.35;;;;;;;0.23;78.83;102713.00;4970854;28;20498;-83
2021/12/18 03:25:41;;;;;;;23.47;20.80;;;;;;;0.55;76.00;102709.97;4988009;28;20553;-83
2021/12/18 03:28:08;;;;;;;23.07;20.57;;;;;;;0.49;76.94;102673.47;4988046;28;20121;-83
2021/12/18 03:30:36;;;;;;;24.47;20.40;;;;;;;-0.06;76.02;102583.63;4970669;28;20482;-86
2021/12/18 03:33:04;;;;;;;24.00;20.57;;;;;;;-1.13;76.64;102414.47;4971159;28;20188;-82
2021/12/18 03:35:31;;;;;;;23.63;21.00;;;;;;;-1.11;76.65;102423.13;4970983;28;20050;-82
2021/12/18 03:37:58;;;;;;;23.67;21.03;;;;;;;0.47;76.87;102683.94;4988315;28;20293;-82
2021/12/18 03:40:25;;;;;;;25.37;21.93;;;;;;;0.55;77.00;102676.84;4970857;28;20078;-83
2021/12/18 03:42:52;;;;;;;23.00;20.53;;;;;;;0.42;76.22;102625.66;4970527;28;20593;-85
2021/12/18 03:45:22;;;;;;;23.67;21.00;;;;;;;0.67;76.24;102691.50;4970977;28;20058;-84
2021/12/18 03:47:50;;;;;;;22.80;20.20;;;;;;;-0.59;76.28;102504.25;4987859;28;20610;-83
2021/12/18 03:50:19;;;;;;;23.60;21.03;;;;;;;0.61;75.92;102686.38;4970729;28;20074;-86
2021/12/18 03:52:46;;;;;;;23.70;21.17;;;;;;;0.78;74.70;102717.50;4970080;28;20078;-84
2021/12/18 03:55:13;;;;;;;23.70;21.20;;;;;;;-0.04;74.41;102602.75;4970844;28;20069;-85
2021/12/18 03:57:40;;;;;;;24.10;20.83;;;;;;;0.64;74.92;102734.22;4970382;28;20085;-85
2021/12/18 04:00:11;;;;;;;22.83;20.47;;;;;;;0.48;74.73;102735.31;4988435;28;20319;-84
2021/12/18 04:02:38;;;;;;;22.93;20.60;;;;;;;0.32;74.37;102731.19;4965315;28;20262;-83
2021/12/18 04:05:05;;;;;;;33.60;21.97;;;;;;;0.26;74.53;102720.78;4972009;28;20085;-84
2021/12/18 04:07:39;;;;;;;24.33;21.67;;;;;;;0.12;74.72;102702.66;4955182;28;20057;-82
2021/12/18 04:10:08;;;;;;;24.33;21.67;;;;;;;0.16;75.79;102736.56;4954829;28;20138;-84
2021/12/18 04:12:34;;;;;;;21.97;19.67;;;;;;;-0.36;75.76;102674.47;4954367;28;20463;-83
2021/12/18 04:15:01;;;;;;;27.83;23.17;;;;;;;-1.11;76.15;102548.25;4954691;28;20060;-83
2021/12/18 04:17:28;;;;;;;23.83;21.03;;;;;;;-0.36;76.12;102705.78;4971526;28;20054;-83
2021/12/18 04:19:55;;;;;;;25.57;22.37;;;;;;;-0.63;76.60;102656.47;4954751;28;20434;-82
2021/12/18 04:22:22;;;;;;;25.37;21.83;;;;;;;-0.06;76.44;102735.06;4971764;28;20059;-83
2021/12/18 04:24:48;;;;;;;22.90;19.60;;;;;;;-1.37;75.92;102534.59;4954952;28;20050;-83
2021/12/18 04:27:15;;;;;;;23.87;21.33;;;;;;;-0.12;76.44;102761.22;4955060;28;20103;-86
2021/12/18 04:29:41;;;;;;;23.27;20.43;;;;;;;-2.16;76.52;102437.94;4954495;28;20078;-85
2021/12/18 04:32:08;;;;;;;23.57;21.03;;;;;;;-0.21;76.83;102746.53;4956700;28;20078;-84
2021/12/18 04:34:35;;;;;;;21.30;18.77;;;;;;;-0.62;76.68;102685.16;4957734;28;20137;-84
2021/12/18 04:37:02;;;;;;;24.20;21.40;;;;;;;-0.20;76.74;102750.00;4957981;28;20072;-84
2021/12/18 04:39:28;;;;;;;24.77;21.60;;;;;;;-1.59;76.83;102526.06;4957351;28;20125;-83
2021/12/18 04:41:57;;;;;;;26.07;21.90;;;;;;;-1.18;76.91;102597.84;4976606;28;20517;-84
2021/12/18 04:44:25;;;;;;;25.57;19.93;;;;;;;-0.27;76.56;102763.13;4956838;28;20453;-83
2021/12/18 04:46:53;;;;;;;21.93;19.60;;;;;;;-0.45;76.50;102698.03;4953251;28;20102;-81
2021/12/18 04:49:20;;;;;;;20.97;18.77;;;;;;;-1.02;75.58;102635.06;4970528;28;20174;-82
2021/12/18 04:51:47;;;;;;;21.50;18.97;;;;;;;-0.97;76.13;102660.25;4952905;28;20058;-85
2021/12/18 04:54:14;;;;;;;20.33;18.30;;;;;;;-0.38;76.36;102756.28;4953136;28;20050;-83
2021/12/18 04:56:41;;;;;;;22.07;19.77;;;;;;;-0.86;76.49;102691.44;4970680;28;20078;-83
2021/12/18 04:59:07;;;;;;;22.03;19.30;;;;;;;-0.81;76.80;102709.66;4953198;28;20054;-82
2021/12/18 05:01:38;;;;;;;21.60;19.30;;;;;;;-0.58;77.12;102756.41;4951611;28;20096;-83
2021/12/18 05:04:10;;;;;;;20.70;18.37;;;;;;;-0.76;76.91;102747.00;4968140;28;20051;-82
2021/12/18 05:06:41;;;;;;;22.57;20.17;;;;;;;-0.61;77.51;102782.53;4968887;28;20078;-81
2021/12/18 05:09:08;;;;;;;23.27;20.20;;;;;;;-0.63;77.31;102747.75;4965158;28;20432;-81
2021/12/18 05:11:37;;;;;;;22.27;19.90;;;;;;;-2.33;76.82;102445.00;4967760;28;20097;-83
2021/12/18 05:14:04;;;;;;;22.50;20.10;;;;;;;-0.07;76.28;102775.13;4959853;28;20047;-83
2021/12/18 05:16:31;;;;;;;22.67;20.37;;;;;;;-0.22;76.64;102770.91;4933252;29;20503;-83
2021/12/18 05:18:57;;;;;;;23.40;20.87;;;;;;;-0.55;76.85;102715.53;4932199;29;20059;-82
2021/12/18 05:21:24;;;;;;;23.13;20.67;;;;;;;-0.37;76.88;102760.59;4932395;29;20142;-84
2021/12/18 05:23:51;;;;;;;24.43;20.13;;;;;;;-0.69;76.45;102725.22;4932242;29;20090;-83
2021/12/18 05:26:18;;;;;;;20.17;18.03;;;;;;;-0.56;76.85;102745.13;4942122;28;20479;-84
2021/12/18 05:28:45;;;;;;;22.50;19.60;;;;;;;-0.37;76.96;102797.16;4951275;28;20058;-83
2021/12/18 05:31:17;;;;;;;23.73;20.83;;;;;;;-2.31;76.95;102495.28;4968777;28;20376;-82
2021/12/18 05:33:52;;;;;;;21.55;19.33;;;;;;;-2.28;76.84;102490.06;4968296;28;20169;-82
2021/12/18 05:39:07;;;;;;;20.67;18.50;;;;;;;-0.33;77.37;102825.81;4968022;28;20082;-82
2021/12/18 05:41:35;;;;;;;20.87;18.70;;;;;;;-0.81;76.34;102733.13;4967889;28;20487;-84
2021/12/18 05:44:02;;;;;;;20.37;17.97;;;;;;;-0.53;76.69;102810.31;4967395;28;20137;-82
2021/12/18 05:46:33;;;;;;;24.20;20.70;;;;;;;-1.25;76.63;102685.63;4977249;28;20066;-86
2021/12/18 05:49:02;;;;;;;21.47;18.37;;;;;;;-1.31;77.01;102685.69;4992777;28;20053;-88
2021/12/18 05:51:31;;;;;;;21.73;19.37;;;;;;;-0.34;76.71;102839.75;4971837;28;20047;-83
2021/12/18 05:53:58;;;;;;;21.60;19.23;;;;;;;-0.55;76.27;102829.47;4969976;28;20125;-85
2021/12/18 05:56:25;;;;;;;29.03;21.57;;;;;;;-0.60;77.13;102805.16;4967697;28;20057;-82
2021/12/18 05:58:52;;;;;;;25.60;22.00;;;;;;;-0.39;77.60;102851.09;4967639;28;20557;-83
2021/12/18 06:01:21;;;;;;;25.10;21.97;;;;;;;-0.63;77.80;102826.03;4967456;28;20313;-82
2021/12/18 06:03:51;;;;;;;24.63;20.03;;;;;;;-1.41;78.50;102700.47;4985459;28;20108;-82
2021/12/18 06:06:20;;;;;;;26.20;20.27;;;;;;;-0.76;78.62;102822.66;4986929;28;20734;-82
2021/12/18 06:08:50;;;;;;;22.60;20.03;;;;;;;-0.73;78.31;102825.22;4985535;28;20060;-83
2021/12/18 06:11:22;;;;;;;23.70;21.20;;;;;;;-1.52;78.16;102703.16;4986053;28;20049;-83
2021/12/18 06:13:51;;;;;;;26.55;19.45;;;;;;;-1.02;78.68;102794.09;4986213;28;20502;-85
2021/12/18 06:16:20;;;;;;;22.97;18.63;;;;;;;-1.87;78.33;102666.88;4986328;28;20054;-83
2021/12/18 06:18:50;;;;;;;20.93;17.43;;;;;;;-1.81;77.89;102689.41;4985293;28;20246;-82
2021/12/18 06:21:18;;;;;;;20.30;18.10;;;;;;;-0.79;78.34;102901.78;4985961;28;20278;-83
2021/12/18 06:23:50;;;;;;;21.17;18.07;;;;;;;-0.73;78.49;102914.81;4987428;28;20141;-82
2021/12/18 06:26:18;;;;;;;21.48;18.58;;;;;;;-0.78;78.32;102920.91;4980728;28;20054;-85
2021/12/18 06:28:45;;;;;;;19.87;16.93;;;;;;;-1.20;79.00;102866.31;4970341;28;20054;-85
2021/12/18 06:31:29;;;;;;;19.50;17.37;;;;;;;-1.00;79.11;102900.13;4987947;28;20549;-83
2021/12/18 06:33:56;;;;;;;20.50;18.40;;;;;;;-1.01;79.42;102908.81;4986301;28;20286;-84
2021/12/18 06:36:23;;;;;;;22.23;19.57;;;;;;;-1.96;79.41;102738.03;4987262;28;20050;-82
2021/12/18 06:38:50;;;;;;;24.63;18.97;;;;;;;-1.90;79.53;102762.31;4987912;28;20054;-81
2021/12/18 06:41:17;;;;;;;21.43;18.27;;;;;;;-1.57;79.54;102829.94;4989421;28;20133;-83
2021/12/18 06:43:43;;;;;;;24.33;19.70;;;;;;;-1.01;79.91;102929.69;4989413;28;20062;-84
2021/12/18 06:46:10;;;;;;;21.47;18.03;;;;;;;-0.99;79.91;102932.31;4987928;28;20246;-82
2021/12/18 06:48:37;;;;;;;21.70;18.93;;;;;;;-1.26;80.02;102879.38;4984246;28;20054;-84
2021/12/18 06:51:03;;;;;;;24.70;20.87;;;;;;;-0.94;79.74;102947.03;4971837;28;20158;-83
2021/12/18 06:53:30;;;;;;;27.10;20.83;;;;;;;-1.55;79.76;102843.84;4976081;28;20056;-84
2021/12/18 06:55:57;;;;;;;27.93;21.00;;;;;;;-1.49;80.37;102847.31;4978197;28;20043;-84
2021/12/18 06:58:23;;;;;;;26.17;21.90;;;;;;;-1.21;79.94;102895.88;4967287;28;20500;-83
2021/12/18 07:00:53;;;;;;;27.67;20.47;;;;;;;-1.52;79.90;102864.66;4950677;28;20506;-81
2021/12/18 07:03:22;;;;;;;30.00;22.50;;;;;;;-0.97;80.43;102967.03;4951046;28;20062;-82
2021/12/18 07:05:49;;;;;;;28.67;22.10;;;;;;;-1.33;80.00;102908.94;4950314;28;20381;-82
2021/12/18 07:08:16;;;;;;;30.57;23.27;;;;;;;-1.15;80.32;102945.34;4949683;28;20502;-83
2021/12/18 07:10:42;;;;;;;30.37;23.33;;;;;;;-1.05;80.54;102971.41;4949887;28;20615;-82
2021/12/18 07:13:10;;;;;;;34.00;25.40;;;;;;;-1.69;80.43;102882.06;4954505;28;20489;-83
2021/12/18 07:15:37;;;;;;;37.33;25.30;;;;;;;-1.66;80.30;102904.63;4950885;28;20165;-83
2021/12/18 07:18:04;;;;;;;34.40;24.70;;;;;;;-1.27;80.40;102968.84;4949877;28;20426;-81
2021/12/18 07:20:33;;;;;;;32.93;23.57;;;;;;;-1.43;80.46;102951.50;4965770;28;20113;-82
2021/12/18 07:23:00;;;;;;;34.80;25.87;;;;;;;-1.18;81.06;103000.13;4949638;28;20050;-82
2021/12/18 07:25:31;;;;;;;31.20;23.70;;;;;;;-1.98;80.93;102854.31;4966634;28;20046;-81
2021/12/18 07:27:58;;;;;;;31.33;23.37;;;;;;;-2.84;80.86;102716.47;4975018;28;20070;-82
2021/12/18 07:30:28;;;;;;;27.83;20.83;;;;;;;-2.00;80.33;102871.66;4972669;28;20054;-82
2021/12/18 07:32:57;;;;;;;54.57;24.40;;;;;;;-1.86;80.49;102892.50;4968177;28;20050;-85
2021/12/18 07:35:24;;;;;;;34.03;23.93;;;;;;;-2.41;80.57;102817.03;4985097;28;20059;-83
2021/12/18 07:37:50;;;;;;;31.90;23.27;;;;;;;-2.97;80.41;102725.09;4970787;28;20462;-86
2021/12/18 07:40:17;;;;;;;31.83;24.07;;;;;;;-1.81;80.68;102919.41;4971299;28;20052;-83
2021/12/18 07:42:44;;;;;;;38.90;24.67;;;;;;;-1.80;80.21;102917.66;4972581;28;20050;-82
2021/12/18 07:45:12;;;;;;;29.53;21.97;;;;;;;-3.29;80.00;102689.53;4973303;28;20142;-83
2021/12/18 07:47:39;;;;;;;31.30;23.20;;;;;;;-1.73;80.65;102932.41;4973770;28;20050;-83
2021/12/18 07:50:12;;;;;;;32.47;22.57;;;;;;;-1.75;80.41;102942.84;4973943;28;20295;-82
2021/12/18 07:52:56;;;;;;;32.73;21.13;;;;;;;-1.13;79.98;103024.44;4991197;28;20625;-83
2021/12/18 07:55:25;;;;;;;29.53;21.00;;;;;;;-1.15;80.33;103031.38;4974244;28;20060;-83
2021/12/18 07:57:54;;;;;;;30.67;22.57;;;;;;;-1.55;80.35;102962.81;4977436;28;20141;-87
2021/12/18 08:00:21;;;;;;;23.80;19.40;;;;;;;-1.42;80.35;102990.59;4975882;28;20108;-81
2021/12/18 08:02:48;;;;;;;27.33;21.40;;;;;;;-2.09;80.44;102887.28;4992873;28;20149;-81
2021/12/18 08:05:16;;;;;;;26.77;21.87;;;;;;;-1.40;80.29;102986.25;4975657;28;20062;-82
2021/12/18 08:07:42;;;;;;;29.50;22.80;;;;;;;-1.48;80.28;102972.38;4975421;28;20042;-84
2021/12/18 08:10:09;;;;;;;28.20;21.07;;;;;;;-1.13;80.59;103037.47;4992923;28;20052;-83
2021/12/18 08:12:36;;;;;;;26.87;19.80;;;;;;;-1.26;80.52;103021.84;4975666;28;20046;-85
2021/12/18 08:15:04;;;;;;;29.83;20.43;;;;;;;-1.47;80.67;102981.03;4975144;28;20054;-83
2021/12/18 08:17:31;;;;;;;27.27;20.83;;;;;;;-1.18;80.26;103028.78;4973737;28;20054;-83
2021/12/18 08:20:00;;;;;;;37.37;23.97;;;;;;;-1.17;79.70;103040.94;4973003;28;20061;-84
2021/12/18 08:22:26;;;;;;;30.83;23.03;;;;;;;-1.22;80.18;103034.00;4973988;28;20518;-83
2021/12/18 08:24:53;;;;;;;31.73;23.37;;;;;;;-1.51;79.77;102990.59;4974494;28;20161;-82
2021/12/18 08:27:19;;;;;;;35.13;23.67;;;;;;;-1.76;80.28;102961.94;4991709;28;20062;-86
2021/12/18 08:29:46;;;;;;;33.03;24.60;;;;;;;-1.14;80.17;103058.31;4991985;28;20046;-82
2021/12/18 08:32:13;;;;;;;35.33;25.97;;;;;;;-1.48;79.63;103007.94;4975251;28;20318;-83
2021/12/18 08:34:39;;;;;;;36.97;26.00;;;;;;;-1.28;79.81;103055.72;4977766;28;20046;-82
2021/12/18 08:37:06;;;;;;;39.80;27.03;;;;;;;-2.14;79.61;102933.25;4983845;28;20046;-85
2021/12/18 08:39:33;;;;;;;32.47;23.73;;;;;;;-1.37;80.35;103076.56;4989035;28;20084;-86
2021/12/18 08:42:04;;;;;;;33.17;23.47;;;;;;;-1.71;80.76;103024.44;4985706;28;20046;-83
2021/12/18 08:44:34;;;;;;;30.03;22.33;;;;;;;-1.37;80.29;103076.56;4980074;28;20050;-84
2021/12/18 08:47:01;;;;;;;27.90;22.40;;;;;;;-1.91;79.97;102997.53;4977103;28;20145;-83
2021/12/18 08:49:28;;;;;;;24.17;17.43;;;;;;;-1.74;79.79;103035.72;4998343;28;20299;-88
2021/12/18 08:51:55;;;;;;;36.13;21.23;;;;;;;-1.58;80.09;103075.72;4993469;28;20492;-83
2021/12/18 08:54:22;;;;;;;26.67;18.73;;;;;;;-1.58;80.22;103093.03;4975614;28;20116;-83
2021/12/18 08:57:06;;;;;;;30.70;20.53;;;;;;;-1.74;80.74;103073.94;4992401;28;20050;-83
2021/12/18 08:59:33;;;;;;;28.20;19.80;;;;;;;-1.73;81.54;103067.84;4974955;28;20050;-83
2021/12/18 09:02:00;;;;;;;37.93;21.37;;;;;;;-1.59;81.06;103112.16;4992253;28;20085;-83
2021/12/18 09:04:27;;;;;;;49.47;23.30;;;;;;;-2.75;81.04;102899.31;4993960;28;20068;-83
2021/12/18 09:06:54;;;;;;;32.30;21.37;;;;;;;-1.82;81.14;103047.00;4977210;28;20506;-83
2021/12/18 09:09:23;;;;;;;31.47;20.80;;;;;;;-1.58;81.13;103104.38;4975647;28;20112;-83
2021/12/18 09:11:50;;;;;;;28.90;21.40;;;;;;;-2.94;81.35;102875.84;4992836;28;20050;-81
2021/12/18 09:14:18;;;;;;;34.50;22.47;;;;;;;-1.59;81.76;103073.09;4974564;28;20058;-83
2021/12/18 09:16:44;;;;;;;33.70;22.43;;;;;;;-1.48;81.63;103088.72;4974942;28;20490;-84
2021/12/18 09:19:11;;;;;;;32.47;23.07;;;;;;;-1.39;81.91;103083.53;4991603;28;20050;-82
2021/12/18 09:21:38;;;;;;;27.10;21.83;;;;;;;-1.58;81.47;103051.38;4974766;28;20840;-83
2021/12/18 09:24:05;;;;;;;28.50;21.43;;;;;;;-1.03;81.36;103123.50;4974631;28;20050;-82
2021/12/18 09:26:32;;;;;;;29.67;21.67;;;;;;;-1.23;81.30;103082.66;4992079;28;20057;-83
2021/12/18 09:28:58;;;;;;;31.07;22.50;;;;;;;-1.03;81.49;103103.50;4974532;28;20046;-83
2021/12/18 09:31:26;;;;;;;33.97;22.00;;;;;;;-0.92;81.00;103112.19;4991336;28;20062;-83
2021/12/18 09:33:53;;;;;;;28.90;21.17;;;;;;;-0.97;80.59;103089.59;4974298;28;20060;-82
2021/12/18 09:36:20;;;;;;;26.73;21.47;;;;;;;-0.88;81.00;103097.41;4974643;28;20207;-84
2021/12/18 09:38:47;;;;;;;32.63;22.47;;;;;;;-1.08;81.25;103064.41;4974129;28;20056;-82
2021/12/18 09:41:20;;;;;;;33.53;24.00;;;;;;;-0.84;80.85;103108.72;4973564;28;20129;-81
2021/12/18 09:43:47;;;;;;;31.70;25.17;;;;;;;-0.97;81.09;103076.56;4984551;28;20565;-84
2021/12/18 09:46:14;;;;;;;34.33;26.10;;;;;;;-0.71;81.78;103100.84;4960749;28;20078;-82
2021/12/18 09:48:43;;;;;;;32.37;25.97;;;;;;;-0.70;81.92;103079.13;4960514;28;20042;-82
2021/12/18 09:51:21;;;;;;;33.83;25.67;;;;;;;-0.80;81.75;103046.13;4954932;28;20514;-83
2021/12/18 09:53:50;;;;;;;34.17;26.63;;;;;;;-0.48;81.54;103094.72;4954640;28;20130;-81
2021/12/18 09:56:17;;;;;;;32.00;24.63;;;;;;;-0.96;80.80;103000.06;4972199;28;20054;-82
2021/12/18 09:58:44;;;;;;;34.77;25.57;;;;;;;-0.49;81.32;103064.28;4954160;28;20141;-81
2021/12/18 10:01:10;;;;;;;38.63;25.87;;;;;;;-1.72;80.95;102843.03;4954337;28;20053;-81
2021/12/18 10:03:58;;;;;;;35.43;27.03;;;;;;;-0.29;81.27;103083.34;4953957;28;20438;-83
2021/12/18 10:06:38;;;;;;;42.37;29.93;;;;;;;-0.26;81.14;103083.34;4954475;28;20414;-82
2021/12/18 10:09:25;;;;;;;42.43;29.23;;;;;;;-0.24;81.47;103088.56;4970196;28;20114;-81
2021/12/18 10:12:11;;;;;;;39.33;29.50;;;;;;;-0.33;81.33;103067.72;4961138;28;20061;-83
2021/12/18 10:14:41;;;;;;;45.33;31.87;;;;;;;-0.66;80.83;103015.66;4954228;28;20060;-81
2021/12/18 10:17:36;;;;;;;49.90;33.10;;;;;;;-0.20;81.18;103090.25;4954169;28;20060;-84
2021/12/18 10:20:09;;;;;;;52.10;31.73;;;;;;;-0.08;81.72;103091.97;4954020;28;20106;-83
2021/12/18 10:22:46;;;;;;;50.27;34.90;;;;;;;-0.65;81.57;102973.00;4960530;28;20053;-84
2021/12/18 10:25:15;;;;;;;53.57;35.93;;;;;;;0.09;81.12;103084.91;4973671;28;20140;-82
2021/12/18 10:27:44;;;;;;;52.57;35.37;;;;;;;0.10;80.63;103099.72;4973786;28;20056;-79
2021/12/18 10:30:15;;;;;;;59.00;39.03;;;;;;;0.14;80.91;103077.91;4972975;28;20105;-81
2021/12/18 10:32:54;;;;;;;53.47;37.03;;;;;;;-0.35;81.00;103004.19;4974003;28;20128;-84
2021/12/18 10:36:10;;;;;;;52.93;35.67;;;;;;;-0.06;80.88;103049.28;4993246;28;20057;-83
2021/12/18 10:39:56;;;;;;;;;;;;;;;;;;;;;
2021/12/18 10:42:57;;;;;;;53.20;34.43;;;;;;;-0.46;81.58;102957.28;4913416;29;20132;-82
2021/12/18 10:45:27;;;;;;;54.67;35.47;;;;;;;-0.37;81.20;102962.44;4910107;29;20092;-84
2021/12/18 10:48:12;;;;;;;47.33;32.77;;;;;;;-0.38;81.07;102967.69;4967339;28;20054;-82
2021/12/18 10:54:00;;;;;;;48.20;33.37;;;;;;;-0.38;80.50;102942.44;4993739;28;20051;-84
2021/12/18 10:56:44;;;;;;;49.33;31.10;;;;;;;-1.20;80.43;102814.19;4975128;28;20058;-82
2021/12/18 10:59:20;;;;;;;48.53;29.93;;;;;;;0.39;80.62;103093.47;4994192;28;20074;-80
2021/12/18 11:01:52;;;;;;;41.17;29.60;;;;;;;-1.33;80.86;102817.72;4975355;28;20085;-84
2021/12/18 11:04:38;;;;;;;38.27;28.87;;;;;;;-0.49;80.58;102965.09;4974859;28;20402;-81
2021/12/18 11:07:28;;;;;;;43.60;29.27;;;;;;;-0.62;81.48;102934.75;4973831;28;20062;-84
2021/12/18 11:10:14;;;;;;;39.13;27.70;;;;;;;0.16;81.28;103049.16;4991463;28;20046;-82
2021/12/18 11:15:28;;;;;;;50.07;28.20;;;;;;;0.35;81.85;103076.06;4995430;28;20069;-83
2021/12/18 11:17:55;;;;;;;57.37;32.13;;;;;;;0.29;81.72;103070.84;4977450;28;20054;-85
2021/12/18 11:20:22;;;;;;;48.37;32.10;;;;;;;0.32;82.44;103070.84;4977583;28;20085;-82
2021/12/18 11:22:50;;;;;;;76.50;31.07;;;;;;;0.05;82.36;103010.06;4977371;28;20070;-83
2021/12/18 11:25:17;;;;;;;48.87;29.57;;;;;;;-0.33;82.04;102950.25;4995142;28;20438;-81
2021/12/18 11:27:48;;;;;;;54.03;33.23;;;;;;;-1.11;82.03;102836.75;4990236;28;20069;-87
2021/12/18 11:30:17;;;;;;;47.73;33.33;;;;;;;0.10;83.14;103021.34;5012554;28;20054;-83
2021/12/18 11:32:46;;;;;;;47.40;31.90;;;;;;;-0.59;83.19;102885.16;4993835;28;20050;-83
2021/12/18 11:35:17;;;;;;;46.60;33.87;;;;;;;0.51;83.47;103038.47;4992887;28;20124;-83
2021/12/18 11:37:48;;;;;;;54.60;33.23;;;;;;;0.33;83.34;102983.75;4992911;28;20053;-84
2021/12/18 11:40:18;;;;;;;50.87;32.53;;;;;;;0.02;82.74;102921.28;4993108;28;20141;-83
2021/12/18 11:42:46;;;;;;;56.20;37.40;;;;;;;-0.01;81.38;102914.31;4994320;28;20347;-86
2021/12/18 11:45:13;;;;;;;52.87;36.10;;;;;;;0.56;81.55;102997.50;4978701;28;20054;-83
2021/12/18 11:47:42;;;;;;;57.63;36.33;;;;;;;-0.05;81.49;102893.47;4975829;28;20046;-82
2021/12/18 11:50:26;;;;;;;61.73;38.17;;;;;;;0.77;81.95;103025.16;4975807;28;20055;-83
2021/12/18 11:53:12;;;;;;;60.53;37.13;;;;;;;0.57;82.38;103001.81;4976067;28;20144;-82
2021/12/18 11:55:49;;;;;;;62.90;39.27;;;;;;;0.70;82.10;103020.88;4980928;28;20137;-85
2021/12/18 11:58:15;;;;;;;60.07;38.10;;;;;;;0.80;82.14;103033.00;4992933;28;20065;-84
2021/12/18 12:01:17;;;;;;;63.67;38.27;;;;;;;0.46;82.14;102947.91;4992889;28;20055;-84
2021/12/18 12:03:55;;;;;;;56.43;36.53;;;;;;;0.88;81.83;103019.84;4957288;28;20502;-83
2021/12/18 12:06:28;;;;;;;62.10;38.67;;;;;;;0.83;81.79;103016.41;4976045;28;20066;-83
2021/12/18 12:09:14;;;;;;;62.80;39.53;;;;;;;0.91;81.68;103025.03;4975803;28;20516;-83
2021/12/18 12:11:51;;;;;;;64.37;39.97;;;;;;;0.96;82.11;103028.47;4993943;28;20133;-87
2021/12/18 12:14:20;;;;;;;64.03;40.83;;;;;;;0.42;82.50;102926.16;4976278;28;20145;-84
2021/12/18 12:16:47;;;;;;;62.80;38.53;;;;;;;1.01;82.30;103020.59;4976337;28;20077;-82